CPX464 Details

Departure: Tampa International Airport (KTPA)
Arrival: March Air Reserve Base (KRIV)
Route: ENDED8 LACEN PATOY Q116 JAWJA CABLO MEI ELD SPS J72 TXO DRK J78 TRM ARKOE1


Current Weather Information
KTPA 230853Z 36007KT 10SM CLR 21/14 A3002
KRIV 230858Z AUTO 00000KT 10SM CLR 11/M01 A2999 RMK AO2 SLP144 T01101011